Arbyrd, MO

3:32 AM CDT on September 01, 2015 (GMT -0500)
KC0UFP WX | | Change Station
CLOSE
Current Station
Personal Weather Station
Location: Kennett, MO
Elevation: 262 ft
Nearby Weather Stations

Elev 262 ft 36.21 °N, 90.07 °W | Updated 13 minutes ago

Clear
Clear
68.4 °F
Feels Like 68.4 °F
N
0.0
Wind Variable Wind from ENE

Today
High -- | Low -- °F
--% Chance of Precip.
Yesterday
High -- | Low -- °F
Precip. -- in
6:32 AM 7:28 PM
Waning Gibbous, 90% visible
Pressure 30.07 in
Visibility 10.0 miles
Clouds Clear
Dew Point 67 °F
Humidity 95%
Rainfall 0.00 in
Snow Depth Not available.
UV 0 out of 12
Pollen 9.40 out of 12
Air Quality Not available.
Flu Activity Not available.
METAR KHKA 010753Z AUTO 19003KT 10SM CLR 22/21 A3007 RMK AO2 SLP181 T02220206
Pressure 30.07 in
Visibility 10.0 miles
Clouds Clear
Dew Point 67 °F
Humidity 95%
Rainfall 0.00 in
Snow Depth Not available.
UV 0 out of 12
Pollen 9.40 out of 12
Air Quality Not available.
Flu Activity Not available.
METAR KHKA 010753Z AUTO 19003KT 10SM CLR 22/21 A3007 RMK AO2 SLP181 T02220206

10-Day Weather Forecast

×

Almanac

Astronomy

Sep. 01, 2015 Rise Set
Actual Time
Civil Twilight
Nautical Twilight
Astronomical Twilight
Moon
Length of Visible Light
Length of Day
Tomorrow will be .
, % of the Moon is Illuminated

Today's Extremes

State Highs State Lows

Community

WunderPhotos

Upload Photos

1,851,490 photos uploaded!

WunderBlogs® & News

Nearby

Air Quality

  Air Quality AQ Index Pollutant
Not available.

Snow Depth

Station Depth Elevation

Earthquake Activity

City Distance Mag. Time & Date
Minimum magnitude displayed is 2.5.

Coastal Water Temperatures

Place Temperature

Stations

Nearby Weather Stations

Station Location Temp. Windchill Dew Point Humidity Wind Precip. Elev Updated Type